createdAt,value
2023-03-24T00:02:24.962Z,2.35
2023-03-24T00:05:30.706Z,2.05
2023-03-24T00:08:37.213Z,2.42
2023-03-24T00:11:42.162Z,2.25
2023-03-24T00:14:46.960Z,2.05
2023-03-24T00:17:52.825Z,2.22
2023-03-24T00:20:58.336Z,1.90
2023-03-24T00:24:04.985Z,1.90
2023-03-24T00:27:13.511Z,1.65
2023-03-24T00:30:19.629Z,2.10
2023-03-24T00:33:25.331Z,1.85
2023-03-24T00:36:29.906Z,2.30
2023-03-24T00:39:34.639Z,2.53
2023-03-24T00:42:41.375Z,2.60
2023-03-24T00:45:46.732Z,2.63
2023-03-24T00:48:53.877Z,1.80
2023-03-24T00:51:58.443Z,2.03
2023-03-24T00:55:06.256Z,2.35
2023-03-24T00:58:11.076Z,2.20
2023-03-24T01:01:15.955Z,2.40
2023-03-24T01:04:20.849Z,3.28
2023-03-24T01:07:28.239Z,2.58
2023-03-24T01:10:36.175Z,2.78
2023-03-24T01:13:41.947Z,2.20
2023-03-24T01:16:47.060Z,2.65
2023-03-24T01:19:53.231Z,2.20
2023-03-24T01:22:57.889Z,3.20
2023-03-24T01:26:07.942Z,2.60
2023-03-24T01:29:12.969Z,2.30
2023-03-24T01:32:17.763Z,2.33
2023-03-24T01:35:28.462Z,2.47
2023-03-24T01:38:34.744Z,2.63
2023-03-24T01:41:42.370Z,1.90
2023-03-24T01:44:50.407Z,2.65
2023-03-24T01:47:56.532Z,2.25
2023-03-24T01:51:29.594Z,2.33
2023-03-24T01:55:01.537Z,1.80
2023-03-24T01:58:07.281Z,2.28
2023-03-24T02:01:29.963Z,1.95
2023-03-24T02:04:59.352Z,2.45
2023-03-24T02:08:39.371Z,2.17
2023-03-24T02:11:45.709Z,2.97
2023-03-24T02:14:51.486Z,1.98
2023-03-24T02:18:25.822Z,2.38
2023-03-24T02:22:03.594Z,2.13
2023-03-24T02:25:47.819Z,2.15
2023-03-24T02:32:52.200Z,2.25
2023-03-24T02:36:09.538Z,3.00
2023-03-24T02:40:12.238Z,2.40
2023-03-24T02:43:21.744Z,2.53
2023-03-24T02:46:42.096Z,2.63
2023-03-24T02:50:22.516Z,2.70
2023-03-24T02:53:44.858Z,2.35
2023-03-24T02:57:33.987Z,2.30
2023-03-24T03:01:13.847Z,2.63
2023-03-24T03:04:54.324Z,2.40
2023-03-24T03:08:03.929Z,2.28
2023-03-24T03:11:13.936Z,2.45
2023-03-24T03:14:25.934Z,2.30
2023-03-24T03:17:38.862Z,1.95
2023-03-24T03:20:50.843Z,2.10
2023-03-24T03:24:02.334Z,2.38
2023-03-24T03:27:18.892Z,1.75
2023-03-24T03:31:06.274Z,1.80
2023-03-24T03:34:50.504Z,1.23
2023-03-24T03:38:23.072Z,1.50
2023-03-24T03:41:28.129Z,1.40
2023-03-24T03:44:33.155Z,1.40
2023-03-24T03:47:37.866Z,1.35
2023-03-24T03:50:42.691Z,1.25
2023-03-24T03:53:59.205Z,1.30
2023-03-24T03:57:06.164Z,1.20
2023-03-24T04:00:23.594Z,1.20
2023-03-24T04:04:12.839Z,1.17
2023-03-24T04:07:53.008Z,1.30
2023-03-24T04:12:10.600Z,1.50
2023-03-24T04:15:40.784Z,1.45
2023-03-24T04:23:00.841Z,1.15
2023-03-24T04:26:35.510Z,1.60
2023-03-24T04:30:02.596Z,1.45
2023-03-24T04:33:39.038Z,1.33
2023-03-24T04:36:54.427Z,1.40
2023-03-24T04:40:12.909Z,1.02
2023-03-24T04:43:21.709Z,1.48
2023-03-24T04:46:26.875Z,1.92
2023-03-24T04:49:41.485Z,1.75
2023-03-24T04:52:45.870Z,2.22
2023-03-24T04:56:12.722Z,1.83
2023-03-24T04:59:36.136Z,1.85
2023-03-24T05:02:45.172Z,1.98
2023-03-24T05:05:56.560Z,1.80
2023-03-24T05:09:01.559Z,2.53
2023-03-24T05:12:08.238Z,2.65
2023-03-24T05:15:36.298Z,2.05
2023-03-24T05:18:59.316Z,1.75
2023-03-24T05:22:08.662Z,1.95
2023-03-24T05:25:13.498Z,2.05
2023-03-24T05:28:18.032Z,2.50
2023-03-24T05:31:22.875Z,2.20
2023-03-24T05:34:40.313Z,2.67
2023-03-24T05:37:49.640Z,1.92
2023-03-24T05:41:01.100Z,1.88
2023-03-24T05:44:11.246Z,2.40
2023-03-24T05:47:16.665Z,2.40
2023-03-24T05:50:24.120Z,2.15
2023-03-24T05:53:28.770Z,2.10
2023-03-24T05:56:47.052Z,2.47
2023-03-24T05:59:57.950Z,2.10
2023-03-24T06:03:21.489Z,3.25
2023-03-24T06:06:38.370Z,3.03
2023-03-24T06:09:47.006Z,2.22
2023-03-24T06:12:53.681Z,3.03
2023-03-24T06:16:02.210Z,3.20
2023-03-24T06:19:17.320Z,3.40
2023-03-24T06:22:44.829Z,2.72
2023-03-24T06:25:58.368Z,2.42
2023-03-24T06:29:03.113Z,2.60
2023-03-24T06:32:12.016Z,3.00
2023-03-24T06:35:20.207Z,2.53
2023-03-24T06:38:30.611Z,2.70
2023-03-24T06:41:35.223Z,2.63
2023-03-24T06:44:40.896Z,3.10
2023-03-24T06:47:45.946Z,3.00
2023-03-24T06:50:52.902Z,2.90
2023-03-24T06:53:58.250Z,3.00
2023-03-24T06:57:04.027Z,3.20
2023-03-24T07:00:29.618Z,2.40
2023-03-24T07:03:57.849Z,2.92
2023-03-24T07:08:16.295Z,2.83
2023-03-24T07:11:12.196Z,4.05
2023-03-24T07:14:26.200Z,3.03
2023-03-24T07:17:32.036Z,2.70
2023-03-24T07:20:50.486Z,3.42
2023-03-24T07:23:57.147Z,2.85
2023-03-24T07:27:12.029Z,3.70
2023-03-24T07:30:19.163Z,3.75
2023-03-24T07:33:26.516Z,3.22
2023-03-24T07:36:31.386Z,2.80
2023-03-24T07:39:36.928Z,3.15
2023-03-24T07:42:43.370Z,3.58
2023-03-24T07:46:02.629Z,2.92
2023-03-24T07:49:18.315Z,3.45
2023-03-24T07:52:30.852Z,2.77
2023-03-24T07:55:39.437Z,3.10
2023-03-24T07:58:50.186Z,2.80
2023-03-24T08:02:19.433Z,2.40
2023-03-24T08:05:44.157Z,1.95
2023-03-24T08:08:56.509Z,2.10
2023-03-24T08:12:09.907Z,1.38
2023-03-24T08:15:19.028Z,2.30
2023-03-24T08:18:25.221Z,2.05
2023-03-24T08:21:29.802Z,1.95
2023-03-24T08:24:36.317Z,2.15
2023-03-24T08:27:43.519Z,2.03
2023-03-24T08:30:48.808Z,1.90
2023-03-24T08:33:54.388Z,1.30
2023-03-24T08:36:58.693Z,1.95
2023-03-24T08:40:05.447Z,2.17
2023-03-24T08:43:15.346Z,1.48
2023-03-24T08:46:19.973Z,1.88
2023-03-24T08:49:24.328Z,2.10
2023-03-24T08:52:28.664Z,2.42
2023-03-24T08:55:33.431Z,2.33
2023-03-24T08:58:38.534Z,2.25
2023-03-24T09:01:43.289Z,2.13
2023-03-24T09:04:49.784Z,2.10
2023-03-24T09:07:54.675Z,1.90
2023-03-24T09:10:59.670Z,2.10
2023-03-24T09:14:04.126Z,1.95
2023-03-24T09:17:08.817Z,2.00
2023-03-24T09:20:15.912Z,1.83
2023-03-24T09:23:22.037Z,1.80
2023-03-24T09:26:26.551Z,1.80
2023-03-24T09:29:31.465Z,1.83
2023-03-24T09:32:38.327Z,1.95
2023-03-24T09:35:43.404Z,1.65
2023-03-24T09:38:48.126Z,1.92
2023-03-24T09:41:53.042Z,1.60
2023-03-24T09:44:59.777Z,1.80
2023-03-24T09:48:35.641Z,2.05
2023-03-24T09:51:45.526Z,1.90
2023-03-24T09:55:02.696Z,1.48
2023-03-24T09:58:09.095Z,1.75
2023-03-24T10:01:16.642Z,1.73
2023-03-24T10:04:26.676Z,1.60
2023-03-24T10:07:57.600Z,1.52
2023-03-24T10:11:05.773Z,1.52
2023-03-24T10:14:58.746Z,1.27
2023-03-24T10:18:18.186Z,1.40
2023-03-24T10:21:27.810Z,1.63
2023-03-24T10:25:10.296Z,1.33
2023-03-24T10:28:32.070Z,1.67
2023-03-24T10:31:37.413Z,1.30
2023-03-24T10:34:46.473Z,1.30
2023-03-24T10:37:52.407Z,1.40
2023-03-24T10:40:57.451Z,1.45
2023-03-24T10:44:02.372Z,1.40
2023-03-24T10:47:08.573Z,1.77
2023-03-24T10:50:15.493Z,1.38
2023-03-24T10:53:21.529Z,1.20
2023-03-24T10:56:41.308Z,1.65
2023-03-24T10:59:59.315Z,1.30
2023-03-24T11:03:13.978Z,1.60
2023-03-24T11:06:21.656Z,1.23
2023-03-24T11:09:26.215Z,1.50
2023-03-24T11:12:34.703Z,1.63
2023-03-24T11:16:03.888Z,1.58
2023-03-24T11:19:22.497Z,1.90
2023-03-24T11:22:27.994Z,1.42
2023-03-24T11:25:38.736Z,1.45
2023-03-24T11:28:57.692Z,1.60
2023-03-24T11:32:10.103Z,1.50
2023-03-24T11:35:18.596Z,1.65
2023-03-24T11:38:35.874Z,1.42
2023-03-24T11:42:12.301Z,1.38
2023-03-24T11:45:42.332Z,1.40
2023-03-24T11:48:56.003Z,3.28
2023-03-24T11:52:02.465Z,2.85
2023-03-24T11:55:17.886Z,1.70
2023-03-24T11:58:39.711Z,1.40
2023-03-24T12:02:13.592Z,1.15
2023-03-24T12:05:24.177Z,0.80
2023-03-24T12:08:43.798Z,1.00
2023-03-24T12:12:36.376Z,1.10
2023-03-24T12:15:57.024Z,2.60
2023-03-24T12:19:21.596Z,1.85
2023-03-24T12:22:50.684Z,1.50
2023-03-24T12:26:23.499Z,1.35
2023-03-24T12:30:07.372Z,1.52
2023-03-24T12:33:56.474Z,1.40
2023-03-24T12:37:10.074Z,1.00
2023-03-24T12:40:44.059Z,0.90
2023-03-24T12:44:27.840Z,1.00
2023-03-24T12:48:25.527Z,1.02
2023-03-24T12:51:33.004Z,0.90
2023-03-24T12:54:53.015Z,0.80
2023-03-24T12:58:30.986Z,1.10
2023-03-24T13:02:19.521Z,0.82
2023-03-24T13:05:33.211Z,0.93
2023-03-24T13:08:40.779Z,0.98
2023-03-24T13:12:03.132Z,1.08
2023-03-24T13:15:18.448Z,1.20
2023-03-24T13:18:41.469Z,0.90
2023-03-24T13:21:48.044Z,1.40
2023-03-24T13:24:54.881Z,0.95
2023-03-24T13:28:04.358Z,1.30
2023-03-24T13:31:10.870Z,1.20
2023-03-24T13:34:42.776Z,1.60
2023-03-24T13:37:58.624Z,1.40
2023-03-24T13:41:11.192Z,1.25
2023-03-24T13:44:39.496Z,1.38
2023-03-24T13:48:11.902Z,1.00
2023-03-24T13:51:21.375Z,1.40
2023-03-24T13:54:29.401Z,1.20
2023-03-24T13:57:33.912Z,1.13
2023-03-24T14:01:06.773Z,0.90
2023-03-24T14:04:28.783Z,1.10
2023-03-24T14:07:44.328Z,0.90
2023-03-24T14:10:51.592Z,0.93
2023-03-24T14:13:56.073Z,1.17
2023-03-24T14:17:06.645Z,0.73
2023-03-24T14:20:25.699Z,0.90
2023-03-24T14:23:52.511Z,0.90
2023-03-24T14:26:57.331Z,0.73
2023-03-24T14:30:11.341Z,0.85
2023-03-24T14:36:40.622Z,0.70
2023-03-24T14:39:47.157Z,0.82
2023-03-24T14:43:02.169Z,1.00
2023-03-24T14:46:21.888Z,0.90
2023-03-24T14:49:33.090Z,0.80
2023-03-24T14:52:48.027Z,1.10
2023-03-24T14:55:54.445Z,1.00
2023-03-24T14:59:08.846Z,1.00
2023-03-24T15:02:48.722Z,1.20
2023-03-24T15:05:53.408Z,1.25
2023-03-24T15:09:06.749Z,0.90
2023-03-24T15:12:11.674Z,0.80
2023-03-24T15:15:24.824Z,0.98
2023-03-24T15:18:29.258Z,0.80
2023-03-24T15:21:41.088Z,0.70
2023-03-24T15:24:52.044Z,0.90
2023-03-24T15:27:57.829Z,1.00
2023-03-24T15:31:03.205Z,0.90
2023-03-24T15:34:27.889Z,0.60
2023-03-24T15:37:43.042Z,1.00
2023-03-24T15:41:09.260Z,0.90
2023-03-24T15:44:20.812Z,0.50
2023-03-24T15:47:29.909Z,0.70
2023-03-24T15:50:54.807Z,1.65
2023-03-24T15:54:00.122Z,0.80
2023-03-24T15:57:19.045Z,0.77
2023-03-24T16:00:36.458Z,1.17
2023-03-24T16:03:43.178Z,1.00
2023-03-24T16:06:53.800Z,0.73
2023-03-24T16:10:06.000Z,0.70
2023-03-24T16:13:18.050Z,0.80
2023-03-24T16:16:29.760Z,0.70
2023-03-24T16:19:34.254Z,1.10
2023-03-24T16:22:38.665Z,0.80
2023-03-24T16:25:43.284Z,1.20
2023-03-24T16:28:48.723Z,1.27
2023-03-24T16:31:56.931Z,1.63
2023-03-24T16:35:01.846Z,1.70
2023-03-24T16:38:06.569Z,1.20
2023-03-24T16:41:13.221Z,1.02
2023-03-24T16:44:18.753Z,1.20
2023-03-24T16:47:23.474Z,1.58
2023-03-24T16:50:42.254Z,0.80
2023-03-24T16:53:47.711Z,1.30
2023-03-24T16:57:17.025Z,1.38
2023-03-24T17:00:22.701Z,1.00
2023-03-24T17:03:31.094Z,1.27
2023-03-24T17:06:39.519Z,1.40
2023-03-24T17:09:46.655Z,1.42
2023-03-24T17:12:55.400Z,1.30
2023-03-24T17:15:59.926Z,1.10
2023-03-24T17:19:06.371Z,1.25
2023-03-24T17:22:11.723Z,1.30
2023-03-24T17:25:24.068Z,1.27
2023-03-24T17:28:28.903Z,1.23
2023-03-24T17:31:33.819Z,1.33
2023-03-24T17:34:38.228Z,1.45
2023-03-24T17:37:43.188Z,1.30
2023-03-24T17:40:48.487Z,1.63
2023-03-24T17:43:53.222Z,1.10
2023-03-24T17:46:58.323Z,1.25
2023-03-24T17:50:09.516Z,1.75
2023-03-24T17:53:15.911Z,1.42
2023-03-24T17:56:20.606Z,1.30
2023-03-24T17:59:25.462Z,1.40
2023-03-24T18:02:30.056Z,1.20
2023-03-24T18:05:34.730Z,1.15
2023-03-24T18:08:39.876Z,1.30
2023-03-24T18:11:45.668Z,1.20
2023-03-24T18:14:52.322Z,1.35
2023-03-24T18:17:57.021Z,1.40
2023-03-24T18:21:02.524Z,1.20
2023-03-24T18:24:07.735Z,1.30
2023-03-24T18:27:12.399Z,2.00
2023-03-24T18:30:17.348Z,1.50
2023-03-24T18:33:22.754Z,1.60
2023-03-24T18:36:27.503Z,1.55
2023-03-24T18:39:34.732Z,1.13
2023-03-24T18:42:39.383Z,1.10
2023-03-24T18:45:45.784Z,1.83
2023-03-24T18:48:53.138Z,1.30
2023-03-24T18:51:57.815Z,1.63
2023-03-24T18:55:02.837Z,1.50
2023-03-24T18:58:10.306Z,1.30
2023-03-24T19:01:22.423Z,0.98
2023-03-24T19:04:27.320Z,1.15
2023-03-24T19:07:32.092Z,1.02
2023-03-24T19:10:37.444Z,1.20
2023-03-24T19:13:46.184Z,1.38
2023-03-24T19:16:51.187Z,1.48
2023-03-24T19:19:58.122Z,1.48
2023-03-24T19:23:02.981Z,1.40
2023-03-24T19:26:07.199Z,1.40
2023-03-24T19:29:11.577Z,1.27
2023-03-24T19:32:16.501Z,1.30
2023-03-24T19:35:21.116Z,0.90
2023-03-24T19:38:25.711Z,1.00
2023-03-24T19:41:30.092Z,0.90
2023-03-24T19:44:35.680Z,1.00
2023-03-24T19:47:40.579Z,1.27
2023-03-24T19:50:46.445Z,1.40
2023-03-24T19:53:51.453Z,1.00
2023-03-24T19:56:55.963Z,1.02
2023-03-24T20:00:00.653Z,1.10
2023-03-24T20:03:05.592Z,1.25
2023-03-24T20:06:10.376Z,1.10
2023-03-24T20:09:15.606Z,1.05
2023-03-24T20:12:20.510Z,1.00
2023-03-24T20:15:24.958Z,1.00
2023-03-24T20:18:29.610Z,1.58
2023-03-24T20:21:33.819Z,1.35
2023-03-24T20:24:38.934Z,1.20
2023-03-24T20:27:47.800Z,1.08
2023-03-24T20:30:58.378Z,1.10
2023-03-24T20:34:03.855Z,1.45
2023-03-24T20:37:08.659Z,1.30
2023-03-24T20:40:13.386Z,1.23
2023-03-24T20:43:18.419Z,1.10
2023-03-24T20:46:23.190Z,1.00
2023-03-24T20:49:27.858Z,0.90
2023-03-24T20:52:32.730Z,1.05
2023-03-24T20:55:36.941Z,1.00
2023-03-24T20:58:43.501Z,1.25
2023-03-24T21:01:51.016Z,1.15
2023-03-24T21:04:55.699Z,1.25
2023-03-24T21:07:59.925Z,1.25
2023-03-24T21:11:04.409Z,1.10
2023-03-24T21:14:08.823Z,1.20
2023-03-24T21:17:14.055Z,1.25
2023-03-24T21:20:19.065Z,1.20
2023-03-24T21:23:24.693Z,0.90
2023-03-24T21:26:29.115Z,1.25
2023-03-24T21:29:33.792Z,1.15
2023-03-24T21:32:38.757Z,1.35
2023-03-24T21:35:43.442Z,1.30
2023-03-24T21:38:49.706Z,1.10
2023-03-24T21:41:54.726Z,0.98
2023-03-24T21:44:59.116Z,1.15
2023-03-24T21:48:05.836Z,1.35
2023-03-24T21:51:10.540Z,1.33
2023-03-24T21:54:15.188Z,1.50
2023-03-24T21:57:20.252Z,1.20
2023-03-24T22:00:29.770Z,1.13
2023-03-24T22:03:37.256Z,1.20
2023-03-24T22:06:41.879Z,1.38
2023-03-24T22:09:50.620Z,1.50
2023-03-24T22:12:56.254Z,1.83
2023-03-24T22:16:04.067Z,1.40
2023-03-24T22:19:09.241Z,1.20
2023-03-24T22:22:13.492Z,1.40
2023-03-24T22:25:18.986Z,1.67
2023-03-24T22:28:23.400Z,1.30
2023-03-24T22:31:28.176Z,1.63
2023-03-24T22:34:32.620Z,1.80
2023-03-24T22:37:37.544Z,1.40
2023-03-24T22:40:43.581Z,1.58
2023-03-24T22:43:47.927Z,1.23
2023-03-24T22:46:52.243Z,1.23
2023-03-24T22:49:56.548Z,1.80
2023-03-24T22:53:01.381Z,2.10
2023-03-24T22:56:08.962Z,1.55
2023-03-24T22:59:13.959Z,1.80
2023-03-24T23:02:24.242Z,1.77
2023-03-24T23:05:29.359Z,1.80
2023-03-24T23:08:34.386Z,1.80
2023-03-24T23:11:39.359Z,1.98
2023-03-24T23:14:46.354Z,2.00
2023-03-24T23:17:51.674Z,1.85
2023-03-24T23:21:07.139Z,1.60
2023-03-24T23:24:12.086Z,1.55
2023-03-24T23:27:16.675Z,5.80
2023-03-24T23:30:21.290Z,3.90
2023-03-24T23:33:26.064Z,3.13
2023-03-24T23:36:34.207Z,3.60
2023-03-24T23:39:39.442Z,2.05
2023-03-24T23:42:47.300Z,2.00
2023-03-24T23:45:58.583Z,1.70
2023-03-24T23:49:03.320Z,1.58
2023-03-24T23:52:08.071Z,1.45
2023-03-24T23:55:15.146Z,1.45
2023-03-24T23:58:19.574Z,1.48
